createdAt,value
2022-11-04T00:00:06.449Z,12.12
2022-11-04T00:01:06.380Z,12.13
2022-11-04T00:02:06.437Z,12.19
2022-11-04T00:03:07.499Z,12.20
2022-11-04T00:04:06.329Z,12.23
2022-11-04T00:05:06.293Z,12.23
2022-11-04T00:06:06.318Z,12.26
2022-11-04T00:07:06.302Z,12.26
2022-11-04T00:08:06.274Z,12.27
2022-11-04T00:09:06.255Z,12.27
2022-11-04T00:10:06.274Z,12.26
2022-11-04T00:11:06.249Z,12.27
2022-11-04T00:12:06.220Z,12.26
2022-11-04T00:13:06.627Z,12.29
2022-11-04T00:14:06.201Z,12.29
2022-11-04T00:15:06.226Z,12.29
2022-11-04T00:16:06.177Z,12.29
2022-11-04T00:17:06.158Z,12.30
2022-11-04T00:18:06.159Z,12.29
2022-11-04T00:19:06.134Z,12.27
2022-11-04T00:20:06.170Z,12.27
2022-11-04T00:21:06.125Z,12.27
2022-11-04T00:22:07.070Z,12.27
2022-11-04T00:23:06.542Z,12.29
2022-11-04T00:24:06.097Z,12.26
2022-11-04T00:25:06.089Z,12.29
2022-11-04T00:26:06.109Z,12.30
2022-11-04T00:27:06.053Z,12.30
2022-11-04T00:28:06.439Z,12.30
2022-11-04T00:29:06.028Z,12.31
2022-11-04T00:30:06.016Z,12.31
2022-11-04T00:31:06.018Z,12.31
2022-11-04T00:32:05.987Z,12.29
2022-11-04T00:33:05.998Z,12.27
2022-11-04T00:34:05.984Z,12.29
2022-11-04T00:35:05.963Z,12.26
2022-11-04T00:36:05.981Z,12.26
2022-11-04T00:37:06.036Z,12.29
2022-11-04T00:38:06.437Z,12.27
2022-11-04T00:39:05.935Z,12.27
2022-11-04T00:40:05.924Z,12.26
2022-11-04T00:41:05.902Z,12.27
2022-11-04T00:42:05.886Z,12.26
2022-11-04T00:43:05.888Z,12.26
2022-11-04T00:44:05.875Z,12.23
2022-11-04T00:45:05.865Z,12.21
2022-11-04T00:46:05.841Z,12.20
2022-11-04T00:47:05.848Z,12.20
2022-11-04T00:48:06.151Z,12.19
2022-11-04T00:49:05.801Z,12.19
2022-11-04T00:50:05.797Z,12.16
2022-11-04T00:51:05.820Z,12.16
2022-11-04T00:52:06.714Z,12.15
2022-11-04T00:53:06.013Z,12.15
2022-11-04T00:54:05.741Z,12.16
2022-11-04T00:55:05.755Z,12.15
2022-11-04T00:56:05.714Z,12.15
2022-11-04T00:57:05.733Z,12.15
2022-11-04T00:58:05.709Z,12.15
2022-11-04T00:59:09.034Z,12.16
2022-11-04T01:00:05.689Z,12.19
2022-11-04T01:01:05.691Z,12.19
2022-11-04T01:02:05.769Z,12.20
2022-11-04T01:03:06.037Z,12.20
2022-11-04T01:04:05.627Z,12.20
2022-11-04T01:05:05.621Z,12.20
2022-11-04T01:06:05.607Z,12.20
2022-11-04T01:07:05.668Z,12.20
2022-11-04T01:08:05.589Z,12.21
2022-11-04T01:09:05.581Z,12.16
2022-11-04T01:10:05.560Z,12.20
2022-11-04T01:11:05.549Z,12.19
2022-11-04T01:12:05.557Z,12.20
2022-11-04T01:13:05.900Z,12.20
2022-11-04T01:14:05.512Z,12.21
2022-11-04T01:15:05.514Z,12.20
2022-11-04T01:16:05.508Z,12.20
2022-11-04T01:17:05.487Z,12.20
2022-11-04T01:18:05.779Z,12.20
2022-11-04T01:19:05.486Z,12.20
2022-11-04T01:20:05.452Z,12.20
2022-11-04T01:21:05.438Z,12.21
2022-11-04T01:22:05.428Z,12.21
2022-11-04T01:23:05.421Z,12.21
2022-11-04T01:24:05.426Z,12.21
2022-11-04T01:25:05.410Z,12.21
2022-11-04T01:26:05.389Z,12.20
2022-11-04T01:27:05.371Z,12.21
2022-11-04T01:28:05.567Z,12.20
2022-11-04T01:29:05.365Z,12.20
2022-11-04T01:30:05.367Z,12.21
2022-11-04T01:31:05.331Z,12.19
2022-11-04T01:32:05.326Z,12.20
2022-11-04T01:33:05.327Z,12.20
2022-11-04T01:34:07.247Z,12.20
2022-11-04T01:35:05.289Z,12.21
2022-11-04T01:36:05.277Z,12.21
2022-11-04T01:37:05.309Z,12.23
2022-11-04T01:38:05.496Z,12.24
2022-11-04T01:39:05.245Z,12.23
2022-11-04T01:40:05.235Z,12.23
2022-11-04T01:41:05.240Z,12.20
2022-11-04T01:42:05.210Z,12.21
2022-11-04T01:43:05.376Z,12.23
2022-11-04T01:44:05.181Z,12.21
2022-11-04T01:45:05.171Z,12.21
2022-11-04T01:46:05.163Z,12.21
2022-11-04T01:47:05.151Z,12.20
2022-11-04T01:48:05.153Z,12.20
2022-11-04T01:49:05.142Z,12.20
2022-11-04T01:50:05.123Z,12.20
2022-11-04T01:51:05.103Z,12.19
2022-11-04T01:52:05.096Z,12.15
2022-11-04T01:53:05.270Z,12.13
2022-11-04T01:54:05.073Z,12.15
2022-11-04T01:55:05.064Z,12.15
2022-11-04T01:56:05.076Z,12.15
2022-11-04T01:57:05.046Z,12.19
2022-11-04T01:58:05.059Z,12.15
2022-11-04T01:59:05.033Z,12.16
2022-11-04T02:00:05.015Z,12.15
2022-11-04T02:01:06.040Z,12.15
2022-11-04T02:02:05.123Z,12.13
2022-11-04T02:03:05.014Z,12.13
2022-11-04T02:04:04.976Z,12.15
2022-11-04T02:05:05.034Z,12.15
2022-11-04T02:06:04.938Z,12.15
2022-11-04T02:07:04.936Z,12.16
2022-11-04T02:08:04.929Z,12.16
2022-11-04T02:09:04.957Z,12.16
2022-11-04T02:10:04.900Z,12.16
2022-11-04T02:11:04.923Z,12.16
2022-11-04T02:12:04.889Z,12.19
2022-11-04T02:13:04.890Z,12.16
2022-11-04T02:14:04.879Z,12.15
2022-11-04T02:15:04.864Z,12.13
2022-11-04T02:16:04.827Z,12.13
2022-11-04T02:17:04.820Z,12.12
2022-11-04T02:18:04.804Z,12.12
2022-11-04T02:19:04.814Z,12.11
2022-11-04T02:20:04.817Z,12.12
2022-11-04T02:21:04.772Z,12.12
2022-11-04T02:22:04.777Z,12.11
2022-11-04T02:23:04.792Z,12.12
2022-11-04T02:24:04.745Z,12.11
2022-11-04T02:25:04.736Z,12.11
2022-11-04T02:26:04.722Z,12.13
2022-11-04T02:27:04.703Z,12.11
2022-11-04T02:28:04.716Z,12.13
2022-11-04T02:29:04.704Z,12.13
2022-11-04T02:30:04.683Z,12.12
2022-11-04T02:31:04.693Z,12.12
2022-11-04T02:32:04.659Z,12.12
2022-11-04T02:33:04.647Z,12.11
2022-11-04T02:34:04.663Z,12.12
2022-11-04T02:35:04.623Z,12.11
2022-11-04T02:36:04.609Z,12.09
2022-11-04T02:37:04.601Z,12.09
2022-11-04T02:38:04.577Z,12.09
2022-11-04T02:39:04.589Z,12.08
2022-11-04T02:40:05.530Z,12.08
2022-11-04T02:41:04.561Z,12.05
2022-11-04T02:42:04.545Z,12.05
2022-11-04T02:43:04.550Z,12.05
2022-11-04T02:44:04.557Z,12.05
2022-11-04T02:45:04.510Z,12.04
2022-11-04T02:46:04.489Z,12.04
2022-11-04T02:47:04.494Z,12.04
2022-11-04T02:48:04.500Z,12.04
2022-11-04T02:49:04.470Z,12.02
2022-11-04T02:50:04.463Z,12.02
2022-11-04T02:51:04.442Z,12.02
2022-11-04T02:52:04.451Z,12.01
2022-11-04T02:53:04.422Z,12.01
2022-11-04T02:54:04.423Z,11.99
2022-11-04T02:55:04.402Z,12.01
2022-11-04T02:56:04.384Z,11.97
2022-11-04T02:57:04.398Z,11.97
2022-11-04T02:58:04.363Z,11.97
2022-11-04T02:59:04.354Z,11.97
2022-11-04T03:00:04.435Z,11.96
2022-11-04T03:01:04.387Z,11.94
2022-11-04T03:02:04.460Z,11.90
2022-11-04T03:03:04.321Z,11.90
2022-11-04T03:04:04.306Z,11.89
2022-11-04T03:05:05.256Z,11.85
2022-11-04T03:06:04.278Z,11.82
2022-11-04T03:07:04.302Z,11.83
2022-11-04T03:08:04.257Z,11.82
2022-11-04T03:09:04.246Z,11.80
2022-11-04T03:10:05.208Z,11.80
2022-11-04T03:11:04.239Z,11.75
2022-11-04T03:12:04.216Z,11.78
2022-11-04T03:13:04.233Z,11.78
2022-11-04T03:14:04.185Z,11.78
2022-11-04T03:15:06.144Z,11.78
2022-11-04T03:16:04.220Z,11.78
2022-11-04T03:17:04.160Z,11.80
2022-11-04T03:18:04.164Z,11.77
2022-11-04T03:19:04.140Z,11.75
2022-11-04T03:20:04.122Z,11.77
2022-11-04T03:21:04.123Z,11.75
2022-11-04T03:22:04.092Z,11.74
2022-11-04T03:23:04.092Z,11.71
2022-11-04T03:24:04.095Z,11.71
2022-11-04T03:25:04.103Z,11.67
2022-11-04T03:26:04.063Z,11.70
2022-11-04T03:27:04.055Z,11.70
2022-11-04T03:28:04.034Z,11.70
2022-11-04T03:29:04.035Z,11.71
2022-11-04T03:30:04.118Z,11.70
2022-11-04T03:31:04.014Z,11.71
2022-11-04T03:32:03.992Z,11.71
2022-11-04T03:33:03.980Z,11.70
2022-11-04T03:34:03.965Z,11.70
2022-11-04T03:35:03.965Z,11.68
2022-11-04T03:36:03.971Z,11.68
2022-11-04T03:37:03.932Z,11.64
2022-11-04T03:38:03.934Z,11.64
2022-11-04T03:39:03.910Z,11.62
2022-11-04T03:40:03.907Z,11.61
2022-11-04T03:41:03.908Z,11.57
2022-11-04T03:42:03.892Z,11.53
2022-11-04T03:43:03.876Z,11.50
2022-11-04T03:44:03.865Z,11.47
2022-11-04T03:45:04.866Z,11.44
2022-11-04T03:46:03.829Z,11.44
2022-11-04T03:47:03.839Z,11.41
2022-11-04T03:48:03.810Z,11.41
2022-11-04T03:49:03.800Z,11.41
2022-11-04T03:50:03.790Z,11.41
2022-11-04T03:51:03.784Z,11.41
2022-11-04T03:52:03.778Z,11.41
2022-11-04T03:53:03.837Z,11.39
2022-11-04T03:54:03.749Z,11.39
2022-11-04T03:55:03.732Z,11.36
2022-11-04T03:56:03.726Z,11.35
2022-11-04T03:57:03.713Z,11.34
2022-11-04T03:58:03.717Z,11.32
2022-11-04T03:59:03.691Z,11.29
2022-11-04T04:00:03.682Z,11.28
2022-11-04T04:01:03.827Z,11.27
2022-11-04T04:02:03.746Z,11.25
2022-11-04T04:03:03.657Z,11.24
2022-11-04T04:04:03.633Z,11.21
2022-11-04T04:05:03.625Z,11.20
2022-11-04T04:06:03.662Z,11.20
2022-11-04T04:07:03.603Z,11.19
2022-11-04T04:08:03.616Z,11.19
2022-11-04T04:09:03.585Z,11.17
2022-11-04T04:10:03.565Z,11.14
2022-11-04T04:11:03.578Z,11.13
2022-11-04T04:12:03.550Z,11.13
2022-11-04T04:13:03.540Z,11.09
2022-11-04T04:14:03.528Z,11.09
2022-11-04T04:15:03.517Z,11.07
2022-11-04T04:16:03.519Z,11.03
2022-11-04T04:17:03.545Z,10.99
2022-11-04T04:18:03.498Z,10.96
2022-11-04T04:19:03.485Z,10.95
2022-11-04T04:20:03.459Z,10.91
2022-11-04T04:21:03.452Z,10.89
2022-11-04T04:22:03.450Z,10.88
2022-11-04T04:23:03.443Z,10.81
2022-11-04T04:24:03.422Z,10.80
2022-11-04T04:25:03.414Z,10.77
2022-11-04T04:26:03.409Z,10.76
2022-11-04T04:27:03.412Z,10.73
2022-11-04T04:28:03.404Z,10.71
2022-11-04T04:29:03.363Z,10.70
2022-11-04T04:30:03.349Z,10.66
2022-11-04T04:31:03.347Z,10.65
2022-11-04T04:32:03.344Z,10.65
2022-11-04T04:33:03.333Z,10.65
2022-11-04T04:34:03.300Z,10.62
2022-11-04T04:35:03.283Z,10.62
2022-11-04T04:36:03.276Z,10.59
2022-11-04T04:37:03.268Z,10.60
2022-11-04T04:38:03.266Z,10.59
2022-11-04T04:39:03.261Z,10.56
2022-11-04T04:40:03.229Z,10.56
2022-11-04T04:41:03.262Z,10.53
2022-11-04T04:42:03.206Z,10.53
2022-11-04T04:43:03.204Z,10.52
2022-11-04T04:44:03.197Z,10.47
2022-11-04T04:45:03.208Z,10.47
2022-11-04T04:46:03.167Z,10.47
2022-11-04T04:47:03.158Z,10.44
2022-11-04T04:48:03.163Z,10.40
2022-11-04T04:49:03.150Z,10.42
2022-11-04T04:50:03.129Z,10.40
2022-11-04T04:51:03.135Z,10.37
2022-11-04T04:52:03.115Z,10.36
2022-11-04T04:53:03.089Z,10.32
2022-11-04T04:54:03.081Z,10.32
2022-11-04T04:55:03.059Z,10.26
2022-11-04T04:56:03.083Z,10.28
2022-11-04T04:57:03.094Z,10.25
2022-11-04T04:58:03.040Z,10.22
2022-11-04T04:59:03.013Z,10.22
2022-11-04T05:00:03.051Z,10.21
2022-11-04T05:01:04.007Z,10.24
2022-11-04T05:02:03.180Z,10.19
2022-11-04T05:03:03.042Z,10.18
2022-11-04T05:04:02.963Z,10.19
2022-11-04T05:05:02.992Z,10.15
2022-11-04T05:06:02.963Z,10.15
2022-11-04T05:07:02.943Z,10.14
2022-11-04T05:08:02.956Z,10.12
2022-11-04T05:09:02.914Z,10.12
2022-11-04T05:10:02.933Z,10.10
2022-11-04T05:11:02.892Z,10.10
2022-11-04T05:12:02.899Z,10.10
2022-11-04T05:13:02.870Z,10.10
2022-11-04T05:14:02.876Z,10.10
2022-11-04T05:15:02.872Z,10.12
2022-11-04T05:16:02.835Z,10.09
2022-11-04T05:17:02.818Z,10.09
2022-11-04T05:18:02.823Z,10.06
2022-11-04T05:19:02.820Z,10.06
2022-11-04T05:20:02.811Z,10.04
2022-11-04T05:21:02.779Z,10.04
2022-11-04T05:22:02.762Z,10.06
2022-11-04T05:23:02.764Z,10.04
2022-11-04T05:24:02.750Z,10.01
2022-11-04T05:25:02.740Z,10.00
2022-11-04T05:26:02.733Z,10.00
2022-11-04T05:27:02.715Z,9.99
2022-11-04T05:28:02.699Z,9.97
2022-11-04T05:29:02.758Z,9.97
2022-11-04T05:30:02.719Z,9.96
2022-11-04T05:31:02.673Z,9.96
2022-11-04T05:32:02.685Z,9.91
2022-11-04T05:33:04.991Z,9.91
2022-11-04T05:34:02.639Z,9.88
2022-11-04T05:35:02.612Z,9.83
2022-11-04T05:36:02.615Z,9.82
2022-11-04T05:37:02.619Z,9.82
2022-11-04T05:38:02.604Z,9.82
2022-11-04T05:39:02.573Z,9.82
2022-11-04T05:40:02.577Z,9.82
2022-11-04T05:41:02.564Z,9.83
2022-11-04T05:42:02.560Z,9.82
2022-11-04T05:43:02.552Z,9.83
2022-11-04T05:44:02.536Z,9.81
2022-11-04T05:45:02.539Z,9.82
2022-11-04T05:46:02.512Z,9.79
2022-11-04T05:47:02.490Z,9.76
2022-11-04T05:48:02.502Z,9.75
2022-11-04T05:49:02.479Z,9.71
2022-11-04T05:50:02.457Z,9.70
2022-11-04T05:51:02.463Z,9.67
2022-11-04T05:52:02.437Z,9.64
2022-11-04T05:53:02.433Z,9.64
2022-11-04T05:54:02.420Z,9.63
2022-11-04T05:55:02.396Z,9.61
2022-11-04T05:56:02.407Z,9.60
2022-11-04T05:57:02.368Z,9.57
2022-11-04T05:58:02.365Z,9.57
2022-11-04T05:59:02.347Z,9.53
2022-11-04T06:00:02.348Z,9.53
2022-11-04T06:01:02.348Z,9.56
2022-11-04T06:02:02.485Z,9.52
2022-11-04T06:03:02.369Z,9.53
2022-11-04T06:04:02.298Z,9.53
2022-11-04T06:05:02.281Z,9.53
2022-11-04T06:06:02.280Z,9.53
2022-11-04T06:07:02.288Z,9.57
2022-11-04T06:08:02.259Z,9.57
2022-11-04T06:09:02.245Z,9.57
2022-11-04T06:10:02.247Z,9.58
2022-11-04T06:11:02.218Z,9.61
2022-11-04T06:12:02.209Z,9.63
2022-11-04T06:13:02.202Z,9.64
2022-11-04T06:14:02.200Z,9.67
2022-11-04T06:15:02.170Z,9.70
2022-11-04T06:16:02.162Z,9.71
2022-11-04T06:17:02.303Z,9.73
2022-11-04T06:18:02.140Z,9.76
2022-11-04T06:19:06.052Z,9.78
2022-11-04T06:20:03.122Z,9.79
2022-11-04T06:21:02.117Z,9.82
2022-11-04T06:22:02.086Z,9.85
2022-11-04T06:23:02.095Z,9.86
2022-11-04T06:24:02.077Z,9.89
2022-11-04T06:25:02.065Z,9.89
2022-11-04T06:26:02.048Z,9.93
2022-11-04T06:27:02.051Z,9.91
2022-11-04T06:28:02.037Z,9.97
2022-11-04T06:29:02.019Z,9.96
2022-11-04T06:30:02.016Z,10.00
2022-11-04T06:31:01.988Z,10.01
2022-11-04T06:32:02.017Z,10.03
2022-11-04T06:33:01.960Z,10.03
2022-11-04T06:34:01.961Z,10.03
2022-11-04T06:35:01.954Z,10.03
2022-11-04T06:36:01.939Z,10.03
2022-11-04T06:37:01.947Z,10.03
2022-11-04T06:38:01.916Z,10.04
2022-11-04T06:39:04.881Z,10.07
2022-11-04T06:40:01.899Z,10.07
2022-11-04T06:41:01.955Z,10.09
2022-11-04T06:42:02.927Z,10.10
2022-11-04T06:43:01.852Z,10.10
2022-11-04T06:44:01.873Z,10.10
2022-11-04T06:45:01.878Z,10.14
2022-11-04T06:46:01.831Z,10.12
2022-11-04T06:47:01.841Z,10.10
2022-11-04T06:48:01.827Z,10.10
2022-11-04T06:49:01.792Z,10.12
2022-11-04T06:50:02.744Z,10.14
2022-11-04T06:51:01.770Z,10.09
2022-11-04T06:52:01.799Z,10.10
2022-11-04T06:53:01.745Z,10.12
2022-11-04T06:54:01.737Z,10.14
2022-11-04T06:55:01.725Z,10.14
2022-11-04T06:56:01.717Z,10.14
2022-11-04T06:57:01.731Z,10.15
2022-11-04T06:58:01.698Z,10.15
2022-11-04T06:59:01.682Z,10.17
2022-11-04T07:00:01.684Z,10.18
2022-11-04T07:01:03.105Z,10.15
2022-11-04T07:02:01.831Z,10.18
2022-11-04T07:03:01.660Z,10.19
2022-11-04T07:04:01.637Z,10.19
2022-11-04T07:05:01.646Z,10.21
2022-11-04T07:06:01.600Z,10.22
2022-11-04T07:07:01.589Z,10.22
2022-11-04T07:08:01.603Z,10.25
2022-11-04T07:09:01.581Z,10.25
2022-11-04T07:10:01.585Z,10.25
2022-11-04T07:11:01.552Z,10.28
2022-11-04T07:12:01.574Z,10.26
2022-11-04T07:13:01.558Z,10.28
2022-11-04T07:14:01.537Z,10.28
2022-11-04T07:15:01.502Z,10.28
2022-11-04T07:16:01.520Z,10.28
2022-11-04T07:17:01.503Z,10.30
2022-11-04T07:18:01.487Z,10.32
2022-11-04T07:19:01.482Z,10.30
2022-11-04T07:20:01.444Z,10.33
2022-11-04T07:21:05.691Z,10.33
2022-11-04T07:22:02.453Z,10.33
2022-11-04T07:23:01.427Z,10.34
2022-11-04T07:24:01.421Z,10.34
2022-11-04T07:25:01.386Z,10.34
2022-11-04T07:26:01.383Z,10.37
2022-11-04T07:28:02.555Z,10.37
2022-11-04T07:29:01.399Z,10.37
2022-11-04T07:30:01.338Z,10.39
2022-11-04T07:31:01.329Z,10.40
2022-11-04T07:32:01.317Z,10.40
2022-11-04T07:33:01.310Z,10.42
2022-11-04T07:34:01.309Z,10.43
2022-11-04T07:35:01.290Z,10.47
2022-11-04T07:36:01.273Z,10.51
2022-11-04T07:37:01.254Z,10.53
2022-11-04T07:38:01.269Z,10.55
2022-11-04T07:39:01.230Z,10.58
2022-11-04T07:40:01.227Z,10.60
2022-11-04T07:41:01.210Z,10.62
2022-11-04T07:42:01.239Z,10.65
2022-11-04T07:43:01.205Z,10.68
2022-11-04T07:44:01.281Z,10.68
2022-11-04T07:45:01.202Z,10.71
2022-11-04T07:46:01.158Z,10.74
2022-11-04T07:47:01.164Z,10.74
2022-11-04T07:48:01.144Z,10.76
2022-11-04T07:49:01.148Z,10.77
2022-11-04T07:50:04.056Z,10.76
2022-11-04T07:51:02.123Z,10.78
2022-11-04T07:52:01.114Z,10.77
2022-11-04T07:53:01.078Z,10.78
2022-11-04T07:54:02.043Z,10.78
2022-11-04T07:55:01.068Z,10.78
2022-11-04T07:56:01.035Z,10.80
2022-11-04T07:57:01.052Z,10.80
2022-11-04T07:58:01.036Z,10.80
2022-11-04T07:59:01.040Z,10.80
2022-11-04T08:00:01.005Z,10.78
2022-11-04T08:01:00.998Z,10.78
2022-11-04T08:02:01.209Z,10.77
2022-11-04T08:03:01.026Z,10.77
2022-11-04T08:04:00.984Z,10.77
2022-11-04T08:05:00.947Z,10.77
2022-11-04T08:06:00.959Z,10.76
2022-11-04T08:07:00.928Z,10.78
2022-11-04T08:08:00.921Z,10.78
2022-11-04T08:09:00.984Z,10.80
2022-11-04T08:10:00.915Z,10.81
2022-11-04T08:11:00.901Z,10.81
2022-11-04T08:12:00.888Z,10.81
2022-11-04T08:13:00.852Z,10.81
2022-11-04T08:14:00.850Z,10.83
2022-11-04T08:15:00.903Z,10.84
2022-11-04T08:16:00.826Z,10.84
2022-11-04T08:17:00.838Z,10.86
2022-11-04T08:18:00.825Z,10.88
2022-11-04T08:19:00.791Z,10.89
2022-11-04T08:20:00.803Z,10.88
2022-11-04T08:21:00.772Z,10.91
2022-11-04T08:22:00.760Z,10.91
2022-11-04T08:23:00.746Z,10.94
2022-11-04T08:24:00.739Z,10.94
2022-11-04T08:25:00.733Z,10.94
2022-11-04T08:26:00.716Z,10.95
2022-11-04T08:27:00.724Z,10.96
2022-11-04T08:28:01.357Z,10.95
2022-11-04T08:29:00.679Z,10.95
2022-11-04T08:30:00.668Z,10.98
2022-11-04T08:31:00.647Z,10.99
2022-11-04T08:32:00.645Z,11.01
2022-11-04T08:33:00.651Z,11.02
2022-11-04T08:34:00.659Z,11.06
2022-11-04T08:35:00.635Z,11.07
2022-11-04T08:36:00.606Z,11.07
2022-11-04T08:37:00.599Z,11.09
2022-11-04T08:38:00.580Z,11.10
2022-11-04T08:39:04.462Z,11.10
2022-11-04T08:40:01.581Z,11.13
2022-11-04T08:41:00.679Z,11.13
2022-11-04T08:42:01.112Z,11.13
2022-11-04T08:43:00.523Z,11.14
2022-11-04T08:44:00.519Z,11.16
2022-11-04T08:45:00.512Z,11.19
2022-11-04T08:46:00.534Z,11.19
2022-11-04T08:47:00.481Z,11.21
2022-11-04T08:48:05.292Z,11.19
2022-11-04T08:49:04.552Z,11.24
2022-11-04T08:50:01.466Z,11.21
2022-11-04T08:51:00.454Z,11.21
2022-11-04T08:52:00.445Z,11.21
2022-11-04T08:53:00.416Z,11.20
2022-11-04T08:54:00.437Z,11.21
2022-11-04T08:55:00.394Z,11.21
2022-11-04T08:56:00.393Z,11.20
2022-11-04T08:57:00.394Z,11.21
2022-11-04T08:58:00.360Z,11.24
2022-11-04T08:59:00.345Z,11.24
2022-11-04T09:00:00.345Z,11.24
2022-11-04T09:01:00.314Z,11.27
2022-11-04T09:02:00.446Z,11.25
2022-11-04T09:03:00.296Z,11.27
2022-11-04T09:04:00.376Z,11.29
2022-11-04T09:05:00.288Z,11.29
2022-11-04T09:06:00.277Z,11.32
2022-11-04T09:07:05.194Z,11.32
2022-11-04T09:08:01.259Z,11.35
2022-11-04T09:09:00.248Z,11.36
2022-11-04T09:10:00.227Z,11.38
2022-11-04T09:11:00.249Z,11.38
2022-11-04T09:12:00.199Z,11.38
2022-11-04T09:13:00.197Z,11.43
2022-11-04T09:14:00.180Z,11.44
2022-11-04T09:15:00.179Z,11.46
2022-11-04T09:16:00.161Z,11.49
2022-11-04T09:17:00.160Z,11.52
2022-11-04T09:18:00.134Z,11.54
2022-11-04T09:19:00.142Z,11.57
2022-11-04T09:20:00.112Z,11.61
2022-11-04T09:21:00.112Z,11.62
2022-11-04T09:22:00.094Z,11.67
2022-11-04T09:23:00.093Z,11.68
2022-11-04T09:24:00.094Z,11.72
2022-11-04T09:25:00.076Z,11.74
2022-11-04T09:26:00.067Z,11.75
2022-11-04T09:27:00.050Z,11.80
2022-11-04T09:28:00.036Z,11.83
2022-11-04T09:29:00.030Z,11.86
2022-11-04T09:30:00.009Z,11.89
2022-11-04T09:30:59.996Z,11.87
2022-11-04T09:32:00.002Z,11.89
2022-11-04T09:32:59.988Z,11.90
2022-11-04T09:33:59.957Z,11.96
2022-11-04T09:34:59.950Z,11.96
2022-11-04T09:35:59.947Z,11.96
2022-11-04T09:36:59.931Z,11.99
2022-11-04T09:37:59.915Z,12.01
2022-11-04T09:38:59.902Z,12.02
2022-11-04T09:39:59.912Z,12.04
2022-11-04T09:40:59.899Z,12.06
2022-11-04T09:41:59.869Z,12.09
2022-11-04T09:42:59.868Z,12.11
2022-11-04T09:43:59.860Z,12.13
2022-11-04T09:45:20.593Z,12.20
2022-11-04T09:46:00.831Z,12.20
2022-11-04T09:46:59.834Z,12.26
2022-11-04T09:47:59.809Z,12.27
2022-11-04T09:48:59.791Z,12.31
2022-11-04T09:49:59.780Z,12.34
2022-11-04T09:50:59.829Z,12.38
2022-11-04T09:51:59.767Z,12.38
2022-11-04T09:52:59.764Z,12.45
2022-11-04T09:53:59.738Z,12.46
2022-11-04T09:54:59.725Z,12.46
2022-11-04T09:55:59.733Z,12.48
2022-11-04T09:56:59.712Z,12.49
2022-11-04T09:57:59.752Z,12.51
2022-11-04T09:58:59.684Z,12.57
2022-11-04T09:59:59.677Z,12.60
2022-11-04T10:00:59.736Z,12.64
2022-11-04T10:01:59.757Z,12.74
2022-11-04T10:02:59.647Z,12.77
2022-11-04T10:03:59.646Z,12.75
2022-11-04T10:04:59.616Z,12.81
2022-11-04T10:05:59.645Z,12.85
2022-11-04T10:06:59.608Z,12.89
2022-11-04T10:07:59.587Z,12.95
2022-11-04T10:08:59.577Z,12.96
2022-11-04T10:09:59.569Z,12.97
2022-11-04T10:10:59.590Z,12.99
2022-11-04T10:11:59.544Z,12.97
2022-11-04T10:12:59.547Z,12.96
2022-11-04T10:13:59.521Z,12.96
2022-11-04T10:14:59.518Z,12.96
2022-11-04T10:15:59.500Z,12.97
2022-11-04T10:16:59.515Z,13.00
2022-11-04T10:17:59.474Z,12.96
2022-11-04T10:18:59.455Z,12.93
2022-11-04T10:19:59.461Z,12.93
2022-11-04T10:20:59.457Z,12.92
2022-11-04T10:21:59.438Z,12.92
2022-11-04T10:22:59.442Z,12.87
2022-11-04T10:23:59.405Z,12.87
2022-11-04T10:24:59.432Z,12.88
2022-11-04T10:25:59.389Z,12.89
2022-11-04T10:27:00.918Z,12.88
2022-11-04T10:27:59.395Z,12.87
2022-11-04T10:28:59.354Z,12.87
2022-11-04T10:29:59.431Z,12.87
2022-11-04T10:30:59.345Z,12.88
2022-11-04T10:31:59.330Z,12.88
2022-11-04T10:32:59.315Z,12.89
2022-11-04T10:33:59.296Z,12.95
2022-11-04T10:34:59.294Z,12.99
2022-11-04T10:35:59.287Z,13.00
2022-11-04T10:36:59.272Z,12.96
2022-11-04T10:37:59.262Z,12.96
2022-11-04T10:38:59.258Z,12.96
2022-11-04T10:40:00.205Z,12.96
2022-11-04T10:41:04.388Z,12.99
2022-11-04T10:42:00.221Z,13.00
2022-11-04T10:42:59.209Z,13.03
2022-11-04T10:43:59.191Z,13.07
2022-11-04T10:44:59.176Z,13.06
2022-11-04T10:45:59.167Z,13.03
2022-11-04T10:46:59.190Z,13.00
2022-11-04T10:47:59.145Z,12.99
2022-11-04T10:48:59.131Z,12.97
2022-11-04T10:50:27.032Z,12.96
2022-11-04T10:51:00.126Z,13.02
2022-11-04T10:51:59.092Z,13.06
2022-11-04T10:52:59.091Z,13.11
2022-11-04T10:53:59.073Z,13.11
2022-11-04T10:54:59.092Z,13.11
2022-11-04T10:55:59.055Z,13.09
2022-11-04T10:56:59.070Z,13.06
2022-11-04T10:57:59.039Z,13.09
2022-11-04T10:58:59.018Z,13.12
2022-11-04T10:59:59.021Z,13.15
2022-11-04T11:00:59.120Z,13.17
2022-11-04T11:01:59.119Z,13.21
2022-11-04T11:02:58.988Z,13.25
2022-11-04T11:03:58.969Z,13.25
2022-11-04T11:04:58.977Z,13.29
2022-11-04T11:05:58.957Z,13.30
2022-11-04T11:06:58.960Z,13.32
2022-11-04T11:07:58.943Z,13.33
2022-11-04T11:08:58.907Z,13.38
2022-11-04T11:09:58.896Z,13.41
2022-11-04T11:10:58.900Z,13.43
2022-11-04T11:11:58.901Z,13.44
2022-11-04T11:12:58.870Z,13.47
2022-11-04T11:13:58.869Z,13.46
2022-11-04T11:14:58.847Z,13.46
2022-11-04T11:15:58.835Z,13.49
2022-11-04T11:16:58.820Z,13.52
2022-11-04T11:17:58.822Z,13.55
2022-11-04T11:18:58.790Z,13.58
2022-11-04T11:19:58.784Z,13.62
2022-11-04T11:20:58.781Z,13.63
2022-11-04T11:21:58.766Z,13.65
2022-11-04T11:23:04.462Z,13.63
2022-11-04T11:23:59.746Z,13.63
2022-11-04T11:24:58.742Z,13.61
2022-11-04T11:25:58.721Z,13.59
2022-11-04T11:26:58.724Z,13.61
2022-11-04T11:27:58.714Z,13.62
2022-11-04T11:28:59.516Z,13.59
2022-11-04T11:29:58.679Z,13.58
2022-11-04T11:30:58.690Z,13.62
2022-11-04T11:31:58.673Z,13.65
2022-11-04T11:32:58.647Z,13.69
2022-11-04T11:33:58.644Z,13.70
2022-11-04T11:34:58.621Z,13.67
2022-11-04T11:35:58.628Z,13.69
2022-11-04T11:36:59.570Z,13.70
2022-11-04T11:37:58.579Z,13.69
2022-11-04T11:38:58.594Z,13.76
2022-11-04T11:39:59.517Z,13.74
2022-11-04T11:41:23.348Z,13.77
2022-11-04T11:41:59.568Z,13.80
2022-11-04T11:42:58.539Z,13.76
2022-11-04T11:43:58.524Z,13.73
2022-11-04T11:44:58.517Z,13.67
2022-11-04T11:45:58.492Z,13.67
2022-11-04T11:46:58.514Z,13.65
2022-11-04T11:47:58.470Z,13.65
2022-11-04T11:48:58.460Z,13.69
2022-11-04T11:49:58.469Z,13.71
2022-11-04T11:50:58.482Z,13.76
2022-11-04T11:51:58.434Z,13.79
2022-11-04T11:52:58.432Z,13.87
2022-11-04T11:53:58.403Z,13.88
2022-11-04T11:54:58.418Z,13.89
2022-11-04T11:55:58.384Z,13.91
2022-11-04T11:57:13.168Z,13.84
2022-11-04T12:01:04.752Z,13.80
2022-11-04T12:01:59.475Z,13.80
2022-11-04T12:02:58.562Z,13.80
2022-11-04T12:09:59.227Z,14.14
2022-11-04T12:10:58.236Z,14.20
2022-11-04T12:11:58.202Z,14.28
2022-11-04T12:12:58.189Z,14.32
2022-11-04T12:13:58.191Z,14.35
2022-11-04T12:14:58.214Z,14.32
2022-11-04T12:15:58.181Z,14.28
2022-11-04T12:16:58.146Z,14.21
2022-11-04T12:17:58.153Z,14.14
2022-11-04T12:18:58.153Z,14.12
2022-11-04T12:19:58.128Z,14.07
2022-11-04T12:20:58.126Z,14.06
2022-11-04T12:21:58.124Z,14.01
2022-11-04T12:22:58.091Z,13.96
2022-11-04T12:23:58.072Z,13.94
2022-11-04T12:24:58.064Z,13.89
2022-11-04T12:25:59.002Z,13.88
2022-11-04T12:26:58.055Z,13.84
2022-11-04T12:27:58.045Z,13.80
2022-11-04T12:28:58.051Z,13.77
2022-11-04T12:29:58.964Z,13.74
2022-11-04T12:30:58.009Z,13.71
2022-11-04T12:31:58.013Z,13.71
2022-11-04T12:32:57.976Z,13.70
2022-11-04T12:33:57.960Z,13.71
2022-11-04T12:34:57.973Z,13.70
2022-11-04T12:35:57.956Z,13.70
2022-11-04T12:36:57.950Z,13.71
2022-11-04T12:37:57.923Z,13.71
2022-11-04T12:38:57.915Z,13.71
2022-11-04T12:39:57.902Z,13.73
2022-11-04T12:41:27.710Z,13.73
2022-11-04T12:42:19.979Z,13.71
2022-11-04T12:42:58.930Z,13.71
2022-11-04T12:43:57.859Z,13.71
2022-11-04T12:44:57.839Z,13.71
2022-11-04T12:45:57.829Z,13.70
2022-11-04T12:46:57.850Z,13.71
2022-11-04T12:47:57.817Z,13.71
2022-11-04T12:49:00.749Z,13.70
2022-11-04T12:49:58.781Z,13.69
2022-11-04T12:50:57.772Z,13.69
2022-11-04T12:51:57.789Z,13.65
2022-11-04T12:52:57.764Z,13.65
2022-11-04T12:53:57.782Z,13.62
2022-11-04T12:54:57.733Z,13.61
2022-11-04T12:55:57.719Z,13.61
2022-11-04T12:56:57.715Z,13.62
2022-11-04T12:57:57.724Z,13.62
2022-11-04T12:58:57.693Z,13.61
2022-11-04T12:59:58.567Z,13.61
2022-11-04T13:00:59.750Z,13.61
2022-11-04T13:01:57.804Z,13.61
2022-11-04T13:02:57.672Z,13.59
2022-11-04T13:03:57.631Z,13.59